sensor_id;sensor_type;location;lat;lon;timestamp;P1;durP1;ratioP1;P2;durP2;ratioP2
7683;SDS011;3884;48.616;12.872;2023-11-19T00:13:24;16.50;;;13.67;;
7683;SDS011;3884;48.616;12.872;2023-11-19T00:16:13;15.17;;;11.97;;
7683;SDS011;3884;48.616;12.872;2023-11-19T00:19:41;14.80;;;12.00;;
7683;SDS011;3884;48.616;12.872;2023-11-19T00:23:06;16.87;;;12.70;;
7683;SDS011;3884;48.616;12.872;2023-11-19T00:33:07;15.30;;;11.90;;
7683;SDS011;3884;48.616;12.872;2023-11-19T00:36:05;16.13;;;10.90;;
7683;SDS011;3884;48.616;12.872;2023-11-19T00:39:10;14.07;;;12.10;;
7683;SDS011;3884;48.616;12.872;2023-11-19T00:41:54;13.77;;;11.17;;
7683;SDS011;3884;48.616;12.872;2023-11-19T00:44:50;13.33;;;11.23;;
7683;SDS011;3884;48.616;12.872;2023-11-19T00:47:47;15.27;;;11.83;;
7683;SDS011;3884;48.616;12.872;2023-11-19T00:54:16;13.20;;;11.47;;
7683;SDS011;3884;48.616;12.872;2023-11-19T01:22:35;12.87;;;10.30;;
7683;SDS011;3884;48.616;12.872;2023-11-19T01:29:46;11.23;;;10.03;;
7683;SDS011;3884;48.616;12.872;2023-11-19T01:36:46;13.53;;;10.80;;
7683;SDS011;3884;48.616;12.872;2023-11-19T01:54:36;11.20;;;9.93;;
7683;SDS011;3884;48.616;12.872;2023-11-19T01:57:28;12.43;;;10.33;;
7683;SDS011;3884;48.616;12.872;2023-11-19T02:00:04;13.93;;;10.83;;
7683;SDS011;3884;48.616;12.872;2023-11-19T02:02:46;13.23;;;10.50;;
7683;SDS011;3884;48.616;12.872;2023-11-19T02:05:24;12.60;;;9.97;;
7683;SDS011;3884;48.616;12.872;2023-11-19T02:08:10;11.77;;;9.83;;
7683;SDS011;3884;48.616;12.872;2023-11-19T02:10:46;10.87;;;9.53;;
7683;SDS011;3884;48.616;12.872;2023-11-19T02:13:38;11.30;;;9.33;;
7683;SDS011;3884;48.616;12.872;2023-11-19T02:16:29;11.03;;;9.17;;
7683;SDS011;3884;48.616;12.872;2023-11-19T02:19:05;10.30;;;7.70;;
7683;SDS011;3884;48.616;12.872;2023-11-19T02:21:54;9.60;;;8.53;;
7683;SDS011;3884;48.616;12.872;2023-11-19T02:24:29;9.43;;;7.87;;
7683;SDS011;3884;48.616;12.872;2023-11-19T02:30:18;9.63;;;8.57;;
7683;SDS011;3884;48.616;12.872;2023-11-19T02:32:55;10.73;;;8.73;;
7683;SDS011;3884;48.616;12.872;2023-11-19T02:35:37;10.90;;;9.50;;
7683;SDS011;3884;48.616;12.872;2023-11-19T02:38:22;10.77;;;8.57;;
7683;SDS011;3884;48.616;12.872;2023-11-19T02:41:23;12.07;;;9.53;;
7683;SDS011;3884;48.616;12.872;2023-11-19T02:44:10;10.33;;;9.23;;
7683;SDS011;3884;48.616;12.872;2023-11-19T04:02:50;8.50;;;6.37;;
7683;SDS011;3884;48.616;12.872;2023-11-19T04:05:28;9.73;;;7.20;;
7683;SDS011;3884;48.616;12.872;2023-11-19T04:08:17;8.57;;;6.67;;
7683;SDS011;3884;48.616;12.872;2023-11-19T04:12:09;8.83;;;6.20;;
7683;SDS011;3884;48.616;12.872;2023-11-19T04:22:25;9.63;;;7.23;;
7683;SDS011;3884;48.616;12.872;2023-11-19T04:26:45;8.83;;;7.17;;
7683;SDS011;3884;48.616;12.872;2023-11-19T04:28:16;10.33;;;7.30;;
7683;SDS011;3884;48.616;12.872;2023-11-19T04:31:19;9.20;;;7.50;;
7683;SDS011;3884;48.616;12.872;2023-11-19T04:34:45;10.17;;;7.73;;
7683;SDS011;3884;48.616;12.872;2023-11-19T04:44:17;11.13;;;8.77;;
7683;SDS011;3884;48.616;12.872;2023-11-19T04:51:16;11.93;;;9.07;;
7683;SDS011;3884;48.616;12.872;2023-11-19T04:54:35;14.67;;;10.53;;
7683;SDS011;3884;48.616;12.872;2023-11-19T05:04:34;12.97;;;10.00;;
7683;SDS011;3884;48.616;12.872;2023-11-19T05:07:54;13.20;;;10.03;;
7683;SDS011;3884;48.616;12.872;2023-11-19T06:23:20;10.60;;;8.83;;
7683;SDS011;3884;48.616;12.872;2023-11-19T06:26:08;11.23;;;8.90;;
7683;SDS011;3884;48.616;12.872;2023-11-19T06:28:54;10.70;;;8.60;;
7683;SDS011;3884;48.616;12.872;2023-11-19T06:31:35;12.03;;;8.63;;
7683;SDS011;3884;48.616;12.872;2023-11-19T06:34:34;10.93;;;8.40;;
7683;SDS011;3884;48.616;12.872;2023-11-19T06:37:34;8.90;;;7.53;;
7683;SDS011;3884;48.616;12.872;2023-11-19T06:40:27;9.50;;;7.93;;
7683;SDS011;3884;48.616;12.872;2023-11-19T06:43:20;10.73;;;8.37;;
7683;SDS011;3884;48.616;12.872;2023-11-19T06:46:25;11.77;;;8.87;;
7683;SDS011;3884;48.616;12.872;2023-11-19T06:49:14;9.73;;;7.80;;
7683;SDS011;3884;48.616;12.872;2023-11-19T07:13:20;15.17;;;11.10;;
7683;SDS011;3884;48.616;12.872;2023-11-19T07:16:20;16.17;;;12.40;;
7683;SDS011;3884;48.616;12.872;2023-11-19T07:19:13;16.67;;;12.70;;
7683;SDS011;3884;48.616;12.872;2023-11-19T07:22:17;15.87;;;12.00;;
7683;SDS011;3884;48.616;12.872;2023-11-19T07:28:03;18.30;;;13.07;;
7683;SDS011;3884;48.616;12.872;2023-11-19T07:30:51;17.40;;;12.63;;
7683;SDS011;3884;48.616;12.872;2023-11-19T07:33:33;17.57;;;13.00;;
7683;SDS011;3884;48.616;12.872;2023-11-19T07:36:54;25.60;;;19.90;;
7683;SDS011;3884;48.616;12.872;2023-11-19T07:43:03;18.50;;;14.53;;
7683;SDS011;3884;48.616;12.872;2023-11-19T07:45:40;20.77;;;15.80;;
7683;SDS011;3884;48.616;12.872;2023-11-19T07:48:29;18.47;;;14.23;;
7683;SDS011;3884;48.616;12.872;2023-11-19T07:51:22;21.03;;;14.83;;
7683;SDS011;3884;48.616;12.872;2023-11-19T07:54:14;19.97;;;15.13;;
7683;SDS011;3884;48.616;12.872;2023-11-19T07:56:58;19.33;;;15.23;;
7683;SDS011;3884;48.616;12.872;2023-11-19T07:59:48;32.27;;;22.73;;
7683;SDS011;3884;48.616;12.872;2023-11-19T08:02:22;26.83;;;18.33;;
7683;SDS011;3884;48.616;12.872;2023-11-19T08:08:00;25.00;;;18.60;;
7683;SDS011;3884;48.616;12.872;2023-11-19T08:10:44;21.67;;;15.97;;
7683;SDS011;3884;48.616;12.872;2023-11-19T08:13:13;24.50;;;17.97;;
7683;SDS011;3884;48.616;12.872;2023-11-19T08:15:44;19.97;;;15.20;;
7683;SDS011;3884;48.616;12.872;2023-11-19T08:22:37;21.63;;;16.17;;
7683;SDS011;3884;48.616;12.872;2023-11-19T08:25:09;26.77;;;19.83;;
7683;SDS011;3884;48.616;12.872;2023-11-19T08:27:54;19.50;;;14.67;;
7683;SDS011;3884;48.616;12.872;2023-11-19T08:30:29;18.87;;;13.67;;
7683;SDS011;3884;48.616;12.872;2023-11-19T08:33:04;25.90;;;20.27;;
7683;SDS011;3884;48.616;12.872;2023-11-19T08:35:41;20.93;;;15.33;;
7683;SDS011;3884;48.616;12.872;2023-11-19T08:38:32;19.40;;;14.80;;
7683;SDS011;3884;48.616;12.872;2023-11-19T08:41:04;20.03;;;14.93;;
7683;SDS011;3884;48.616;12.872;2023-11-19T08:43:37;18.77;;;13.93;;
7683;SDS011;3884;48.616;12.872;2023-11-19T08:46:46;19.30;;;14.10;;
7683;SDS011;3884;48.616;12.872;2023-11-19T08:53:27;19.73;;;14.50;;
7683;SDS011;3884;48.616;12.872;2023-11-19T08:56:00;20.50;;;14.77;;
7683;SDS011;3884;48.616;12.872;2023-11-19T08:59:13;18.93;;;14.00;;
7683;SDS011;3884;48.616;12.872;2023-11-19T09:01:43;16.83;;;12.93;;
7683;SDS011;3884;48.616;12.872;2023-11-19T09:04:16;15.17;;;11.63;;
7683;SDS011;3884;48.616;12.872;2023-11-19T09:09:31;13.17;;;10.33;;
7683;SDS011;3884;48.616;12.872;2023-11-19T09:12:02;16.07;;;11.93;;
7683;SDS011;3884;48.616;12.872;2023-11-19T09:14:45;13.20;;;10.70;;
7683;SDS011;3884;48.616;12.872;2023-11-19T09:20:57;16.37;;;12.17;;
7683;SDS011;3884;48.616;12.872;2023-11-19T09:23:42;17.17;;;12.73;;
7683;SDS011;3884;48.616;12.872;2023-11-19T09:26:13;20.83;;;15.33;;
7683;SDS011;3884;48.616;12.872;2023-11-19T09:28:48;22.60;;;15.40;;
7683;SDS011;3884;48.616;12.872;2023-11-19T09:31:15;20.50;;;14.33;;
7683;SDS011;3884;48.616;12.872;2023-11-19T09:33:46;18.17;;;14.13;;
7683;SDS011;3884;48.616;12.872;2023-11-19T09:36:16;57.40;;;35.00;;
7683;SDS011;3884;48.616;12.872;2023-11-19T09:38:48;30.53;;;20.87;;
7683;SDS011;3884;48.616;12.872;2023-11-19T09:41:24;18.93;;;15.40;;
7683;SDS011;3884;48.616;12.872;2023-11-19T09:44:11;35.63;;;26.07;;
7683;SDS011;3884;48.616;12.872;2023-11-19T09:46:49;29.93;;;22.10;;
7683;SDS011;3884;48.616;12.872;2023-11-19T09:49:28;21.83;;;15.20;;
7683;SDS011;3884;48.616;12.872;2023-11-19T09:51:56;22.10;;;15.87;;
7683;SDS011;3884;48.616;12.872;2023-11-19T09:54:26;27.57;;;20.13;;
7683;SDS011;3884;48.616;12.872;2023-11-19T09:57:18;36.93;;;28.77;;
7683;SDS011;3884;48.616;12.872;2023-11-19T10:00:05;37.20;;;29.53;;
7683;SDS011;3884;48.616;12.872;2023-11-19T10:02:36;145.20;;;97.77;;
7683;SDS011;3884;48.616;12.872;2023-11-19T10:05:16;40.17;;;30.57;;
7683;SDS011;3884;48.616;12.872;2023-11-19T10:07:51;27.53;;;21.27;;
7683;SDS011;3884;48.616;12.872;2023-11-19T10:10:21;25.23;;;19.43;;
7683;SDS011;3884;48.616;12.872;2023-11-19T10:13:11;34.10;;;24.87;;
7683;SDS011;3884;48.616;12.872;2023-11-19T10:15:49;24.27;;;16.30;;
7683;SDS011;3884;48.616;12.872;2023-11-19T10:18:27;23.83;;;18.47;;
7683;SDS011;3884;48.616;12.872;2023-11-19T10:20:56;20.53;;;15.23;;
7683;SDS011;3884;48.616;12.872;2023-11-19T10:24:32;20.10;;;15.97;;
7683;SDS011;3884;48.616;12.872;2023-11-19T10:27:02;20.00;;;15.83;;
7683;SDS011;3884;48.616;12.872;2023-11-19T11:07:11;11.90;;;10.07;;
7683;SDS011;3884;48.616;12.872;2023-11-19T11:10:02;13.60;;;10.67;;
7683;SDS011;3884;48.616;12.872;2023-11-19T11:12:33;12.57;;;10.80;;
7683;SDS011;3884;48.616;12.872;2023-11-19T11:15:20;14.13;;;11.17;;
7683;SDS011;3884;48.616;12.872;2023-11-19T11:17:50;13.40;;;10.43;;
7683;SDS011;3884;48.616;12.872;2023-11-19T11:20:22;15.23;;;11.80;;
7683;SDS011;3884;48.616;12.872;2023-11-19T11:22:54;12.77;;;11.10;;
7683;SDS011;3884;48.616;12.872;2023-11-19T11:25:39;13.97;;;10.73;;
7683;SDS011;3884;48.616;12.872;2023-11-19T11:28:24;16.13;;;11.57;;
7683;SDS011;3884;48.616;12.872;2023-11-19T11:31:00;14.07;;;11.10;;
7683;SDS011;3884;48.616;12.872;2023-11-19T11:33:41;19.23;;;13.90;;
7683;SDS011;3884;48.616;12.872;2023-11-19T11:36:27;28.93;;;17.60;;
7683;SDS011;3884;48.616;12.872;2023-11-19T11:39:14;16.37;;;12.00;;
7683;SDS011;3884;48.616;12.872;2023-11-19T11:41:47;14.00;;;10.87;;
7683;SDS011;3884;48.616;12.872;2023-11-19T11:50:51;109.27;;;56.93;;
7683;SDS011;3884;48.616;12.872;2023-11-19T11:53:23;105.20;;;53.17;;
7683;SDS011;3884;48.616;12.872;2023-11-19T11:55:58;37.63;;;22.93;;
7683;SDS011;3884;48.616;12.872;2023-11-19T11:58:32;158.93;;;98.10;;
7683;SDS011;3884;48.616;12.872;2023-11-19T12:01:04;56.23;;;33.40;;
7683;SDS011;3884;48.616;12.872;2023-11-19T12:03:33;20.50;;;14.90;;
7683;SDS011;3884;48.616;12.872;2023-11-19T12:06:01;18.27;;;13.93;;
7683;SDS011;3884;48.616;12.872;2023-11-19T12:08:32;23.50;;;15.70;;
7683;SDS011;3884;48.616;12.872;2023-11-19T12:11:03;21.07;;;17.30;;
7683;SDS011;3884;48.616;12.872;2023-11-19T12:16:23;12.87;;;11.20;;
7683;SDS011;3884;48.616;12.872;2023-11-19T12:18:52;12.00;;;10.77;;
7683;SDS011;3884;48.616;12.872;2023-11-19T12:21:40;11.37;;;10.17;;
7683;SDS011;3884;48.616;12.872;2023-11-19T12:26:45;18.47;;;16.37;;
7683;SDS011;3884;48.616;12.872;2023-11-19T12:31:53;11.47;;;10.17;;
7683;SDS011;3884;48.616;12.872;2023-11-19T12:35:16;13.77;;;11.63;;
7683;SDS011;3884;48.616;12.872;2023-11-19T12:42:25;18.03;;;13.73;;
7683;SDS011;3884;48.616;12.872;2023-11-19T12:58:25;17.10;;;14.07;;
7683;SDS011;3884;48.616;12.872;2023-11-19T13:04:18;16.03;;;13.77;;
7683;SDS011;3884;48.616;12.872;2023-11-19T13:29:25;9.50;;;8.60;;
7683;SDS011;3884;48.616;12.872;2023-11-19T13:36:00;20.07;;;16.30;;
7683;SDS011;3884;48.616;12.872;2023-11-19T13:38:52;23.87;;;17.47;;
7683;SDS011;3884;48.616;12.872;2023-11-19T13:41:24;14.03;;;10.83;;
7683;SDS011;3884;48.616;12.872;2023-11-19T13:43:51;12.60;;;11.30;;
7683;SDS011;3884;48.616;12.872;2023-11-19T13:46:20;11.73;;;10.53;;
7683;SDS011;3884;48.616;12.872;2023-11-19T13:48:47;13.13;;;11.73;;
7683;SDS011;3884;48.616;12.872;2023-11-19T13:51:15;12.40;;;10.67;;
7683;SDS011;3884;48.616;12.872;2023-11-19T13:53:43;13.47;;;11.97;;
7683;SDS011;3884;48.616;12.872;2023-11-19T13:56:10;11.70;;;10.50;;
7683;SDS011;3884;48.616;12.872;2023-11-19T13:58:38;13.63;;;11.30;;
7683;SDS011;3884;48.616;12.872;2023-11-19T14:01:06;13.03;;;10.87;;
7683;SDS011;3884;48.616;12.872;2023-11-19T14:03:40;16.90;;;13.87;;
7683;SDS011;3884;48.616;12.872;2023-11-19T14:06:07;15.40;;;13.80;;
7683;SDS011;3884;48.616;12.872;2023-11-19T14:08:37;17.17;;;12.80;;
7683;SDS011;3884;48.616;12.872;2023-11-19T14:11:04;17.00;;;13.77;;
7683;SDS011;3884;48.616;12.872;2023-11-19T14:13:32;16.13;;;12.53;;
7683;SDS011;3884;48.616;12.872;2023-11-19T14:15:59;21.40;;;18.30;;
7683;SDS011;3884;48.616;12.872;2023-11-19T14:18:27;13.13;;;11.10;;
7683;SDS011;3884;48.616;12.872;2023-11-19T14:20:55;12.97;;;10.97;;
7683;SDS011;3884;48.616;12.872;2023-11-19T14:23:24;13.03;;;10.67;;
7683;SDS011;3884;48.616;12.872;2023-11-19T14:25:52;11.40;;;10.20;;
7683;SDS011;3884;48.616;12.872;2023-11-19T14:28:19;17.83;;;13.97;;
7683;SDS011;3884;48.616;12.872;2023-11-19T14:30:47;16.30;;;13.90;;
7683;SDS011;3884;48.616;12.872;2023-11-19T14:33:18;17.73;;;15.83;;
7683;SDS011;3884;48.616;12.872;2023-11-19T14:35:45;13.50;;;12.13;;
7683;SDS011;3884;48.616;12.872;2023-11-19T14:38:15;10.70;;;9.67;;
7683;SDS011;3884;48.616;12.872;2023-11-19T14:40:44;9.87;;;8.83;;
7683;SDS011;3884;48.616;12.872;2023-11-19T14:43:11;8.37;;;7.57;;
7683;SDS011;3884;48.616;12.872;2023-11-19T14:45:40;9.00;;;8.10;;
7683;SDS011;3884;48.616;12.872;2023-11-19T14:48:11;8.83;;;7.93;;
7683;SDS011;3884;48.616;12.872;2023-11-19T14:50:38;8.23;;;7.33;;
7683;SDS011;3884;48.616;12.872;2023-11-19T14:53:05;8.40;;;6.70;;
7683;SDS011;3884;48.616;12.872;2023-11-19T14:55:35;13.97;;;12.23;;
7683;SDS011;3884;48.616;12.872;2023-11-19T14:58:02;18.87;;;16.93;;
7683;SDS011;3884;48.616;12.872;2023-11-19T15:00:30;18.47;;;16.67;;
7683;SDS011;3884;48.616;12.872;2023-11-19T15:02:57;17.57;;;15.77;;
7683;SDS011;3884;48.616;12.872;2023-11-19T15:05:25;14.00;;;12.60;;
7683;SDS011;3884;48.616;12.872;2023-11-19T15:07:53;14.20;;;12.83;;
7683;SDS011;3884;48.616;12.872;2023-11-19T15:10:21;13.97;;;12.53;;
7683;SDS011;3884;48.616;12.872;2023-11-19T15:12:51;13.23;;;11.83;;
7683;SDS011;3884;48.616;12.872;2023-11-19T15:15:20;15.23;;;13.67;;
7683;SDS011;3884;48.616;12.872;2023-11-19T15:17:47;16.00;;;14.33;;
7683;SDS011;3884;48.616;12.872;2023-11-19T15:20:14;10.20;;;9.20;;
7683;SDS011;3884;48.616;12.872;2023-11-19T15:22:43;10.13;;;9.07;;
7683;SDS011;3884;48.616;12.872;2023-11-19T15:25:10;9.93;;;8.43;;
7683;SDS011;3884;48.616;12.872;2023-11-19T15:27:38;9.90;;;8.60;;
7683;SDS011;3884;48.616;12.872;2023-11-19T15:30:08;9.03;;;7.97;;
7683;SDS011;3884;48.616;12.872;2023-11-19T15:32:36;10.10;;;8.53;;
7683;SDS011;3884;48.616;12.872;2023-11-19T15:35:04;15.37;;;12.23;;
7683;SDS011;3884;48.616;12.872;2023-11-19T15:37:32;13.53;;;11.20;;
7683;SDS011;3884;48.616;12.872;2023-11-19T15:40:00;18.70;;;14.40;;
7683;SDS011;3884;48.616;12.872;2023-11-19T15:42:29;17.07;;;12.47;;
7683;SDS011;3884;48.616;12.872;2023-11-19T15:44:56;19.70;;;16.43;;
7683;SDS011;3884;48.616;12.872;2023-11-19T15:47:26;26.33;;;18.00;;
7683;SDS011;3884;48.616;12.872;2023-11-19T15:49:53;29.23;;;22.23;;
7683;SDS011;3884;48.616;12.872;2023-11-19T15:52:20;26.60;;;20.60;;
7683;SDS011;3884;48.616;12.872;2023-11-19T15:54:47;18.20;;;15.67;;
7683;SDS011;3884;48.616;12.872;2023-11-19T15:57:14;16.17;;;14.20;;
7683;SDS011;3884;48.616;12.872;2023-11-19T15:59:42;13.03;;;10.20;;
7683;SDS011;3884;48.616;12.872;2023-11-19T16:02:09;11.83;;;10.23;;
7683;SDS011;3884;48.616;12.872;2023-11-19T16:04:38;20.10;;;18.00;;
7683;SDS011;3884;48.616;12.872;2023-11-19T16:07:05;21.07;;;18.97;;
7683;SDS011;3884;48.616;12.872;2023-11-19T16:09:32;19.00;;;16.33;;
7683;SDS011;3884;48.616;12.872;2023-11-19T16:11:59;31.07;;;24.00;;
7683;SDS011;3884;48.616;12.872;2023-11-19T16:14:26;35.73;;;23.53;;
7683;SDS011;3884;48.616;12.872;2023-11-19T16:16:53;21.63;;;15.60;;
7683;SDS011;3884;48.616;12.872;2023-11-19T16:19:21;27.17;;;16.00;;
7683;SDS011;3884;48.616;12.872;2023-11-19T16:21:50;30.33;;;18.70;;
7683;SDS011;3884;48.616;12.872;2023-11-19T16:24:18;32.10;;;26.50;;
7683;SDS011;3884;48.616;12.872;2023-11-19T16:26:45;23.47;;;19.53;;
7683;SDS011;3884;48.616;12.872;2023-11-19T16:29:14;21.20;;;16.93;;
7683;SDS011;3884;48.616;12.872;2023-11-19T16:31:41;18.67;;;16.67;;
7683;SDS011;3884;48.616;12.872;2023-11-19T16:34:08;24.37;;;18.33;;
7683;SDS011;3884;48.616;12.872;2023-11-19T16:36:35;22.53;;;17.43;;
7683;SDS011;3884;48.616;12.872;2023-11-19T16:39:04;19.83;;;16.27;;
7683;SDS011;3884;48.616;12.872;2023-11-19T16:41:33;25.00;;;20.97;;
7683;SDS011;3884;48.616;12.872;2023-11-19T16:44:01;37.00;;;26.87;;
7683;SDS011;3884;48.616;12.872;2023-11-19T16:46:29;22.47;;;18.13;;
7683;SDS011;3884;48.616;12.872;2023-11-19T16:48:57;15.90;;;13.70;;
7683;SDS011;3884;48.616;12.872;2023-11-19T16:51:25;19.73;;;16.57;;
7683;SDS011;3884;48.616;12.872;2023-11-19T16:53:52;15.67;;;14.07;;
7683;SDS011;3884;48.616;12.872;2023-11-19T16:56:21;14.40;;;12.83;;
7683;SDS011;3884;48.616;12.872;2023-11-19T16:58:48;14.70;;;12.93;;
7683;SDS011;3884;48.616;12.872;2023-11-19T17:01:15;14.80;;;11.60;;
7683;SDS011;3884;48.616;12.872;2023-11-19T17:03:42;11.53;;;9.97;;
7683;SDS011;3884;48.616;12.872;2023-11-19T17:06:09;11.93;;;8.50;;
7683;SDS011;3884;48.616;12.872;2023-11-19T17:08:36;11.80;;;9.93;;
7683;SDS011;3884;48.616;12.872;2023-11-19T17:11:04;12.10;;;10.43;;
7683;SDS011;3884;48.616;12.872;2023-11-19T17:13:33;13.50;;;12.10;;
7683;SDS011;3884;48.616;12.872;2023-11-19T17:16:00;13.17;;;11.87;;
7683;SDS011;3884;48.616;12.872;2023-11-19T17:18:27;12.33;;;11.03;;
7683;SDS011;3884;48.616;12.872;2023-11-19T17:20:54;11.67;;;10.47;;
7683;SDS011;3884;48.616;12.872;2023-11-19T17:23:23;11.40;;;9.60;;
7683;SDS011;3884;48.616;12.872;2023-11-19T17:25:51;10.47;;;8.63;;
7683;SDS011;3884;48.616;12.872;2023-11-19T17:28:19;8.83;;;7.93;;
7683;SDS011;3884;48.616;12.872;2023-11-19T17:30:49;12.67;;;10.27;;
7683;SDS011;3884;48.616;12.872;2023-11-19T17:33:16;13.27;;;9.63;;
7683;SDS011;3884;48.616;12.872;2023-11-19T17:35:43;8.97;;;6.80;;
7683;SDS011;3884;48.616;12.872;2023-11-19T17:38:10;5.10;;;4.60;;
7683;SDS011;3884;48.616;12.872;2023-11-19T17:40:38;6.30;;;5.70;;
7683;SDS011;3884;48.616;12.872;2023-11-19T17:43:04;10.20;;;5.73;;
7683;SDS011;3884;48.616;12.872;2023-11-19T17:45:31;4.73;;;4.13;;
7683;SDS011;3884;48.616;12.872;2023-11-19T17:48:03;4.40;;;3.70;;
7683;SDS011;3884;48.616;12.872;2023-11-19T17:50:30;3.63;;;3.33;;
7683;SDS011;3884;48.616;12.872;2023-11-19T17:52:57;5.07;;;4.50;;
7683;SDS011;3884;48.616;12.872;2023-11-19T17:55:24;3.67;;;3.07;;
7683;SDS011;3884;48.616;12.872;2023-11-19T17:57:51;5.80;;;4.30;;
7683;SDS011;3884;48.616;12.872;2023-11-19T18:00:18;14.30;;;12.77;;
7683;SDS011;3884;48.616;12.872;2023-11-19T18:02:46;4.23;;;3.93;;
7683;SDS011;3884;48.616;12.872;2023-11-19T18:05:17;4.73;;;3.83;;
7683;SDS011;3884;48.616;12.872;2023-11-19T18:07:45;5.00;;;3.40;;
7683;SDS011;3884;48.616;12.872;2023-11-19T18:10:13;6.17;;;5.57;;
7683;SDS011;3884;48.616;12.872;2023-11-19T18:12:41;2.97;;;2.00;;
7683;SDS011;3884;48.616;12.872;2023-11-19T18:15:08;2.13;;;1.73;;
7683;SDS011;3884;48.616;12.872;2023-11-19T18:17:38;2.03;;;1.80;;
7683;SDS011;3884;48.616;12.872;2023-11-19T18:20:07;2.03;;;1.80;;
7683;SDS011;3884;48.616;12.872;2023-11-19T18:22:38;4.70;;;3.00;;
7683;SDS011;3884;48.616;12.872;2023-11-19T18:25:05;3.77;;;1.90;;
7683;SDS011;3884;48.616;12.872;2023-11-19T18:27:35;2.10;;;1.40;;
7683;SDS011;3884;48.616;12.872;2023-11-19T18:30:04;2.20;;;1.70;;
7683;SDS011;3884;48.616;12.872;2023-11-19T18:32:32;2.10;;;1.90;;
7683;SDS011;3884;48.616;12.872;2023-11-19T18:34:59;2.00;;;1.73;;
7683;SDS011;3884;48.616;12.872;2023-11-19T18:37:26;2.10;;;1.90;;
7683;SDS011;3884;48.616;12.872;2023-11-19T18:39:55;2.37;;;2.13;;
7683;SDS011;3884;48.616;12.872;2023-11-19T18:42:22;2.70;;;2.10;;
7683;SDS011;3884;48.616;12.872;2023-11-19T18:44:49;2.77;;;2.20;;
7683;SDS011;3884;48.616;12.872;2023-11-19T18:47:16;3.37;;;2.30;;
7683;SDS011;3884;48.616;12.872;2023-11-19T18:49:43;2.77;;;2.20;;
7683;SDS011;3884;48.616;12.872;2023-11-19T18:52:10;2.50;;;2.30;;
7683;SDS011;3884;48.616;12.872;2023-11-19T18:54:37;2.30;;;2.10;;
7683;SDS011;3884;48.616;12.872;2023-11-19T18:57:06;2.50;;;2.30;;
7683;SDS011;3884;48.616;12.872;2023-11-19T18:59:33;3.23;;;2.20;;
7683;SDS011;3884;48.616;12.872;2023-11-19T19:02:00;2.40;;;2.20;;
7683;SDS011;3884;48.616;12.872;2023-11-19T19:04:28;2.13;;;1.90;;
7683;SDS011;3884;48.616;12.872;2023-11-19T19:06:55;2.13;;;1.90;;
7683;SDS011;3884;48.616;12.872;2023-11-19T19:09:22;1.97;;;1.87;;
7683;SDS011;3884;48.616;12.872;2023-11-19T19:11:49;2.80;;;1.90;;
7683;SDS011;3884;48.616;12.872;2023-11-19T19:14:18;2.70;;;2.23;;
7683;SDS011;3884;48.616;12.872;2023-11-19T19:16:45;2.97;;;2.10;;
7683;SDS011;3884;48.616;12.872;2023-11-19T19:19:12;2.33;;;2.03;;
7683;SDS011;3884;48.616;12.872;2023-11-19T19:21:39;2.00;;;1.80;;
7683;SDS011;3884;48.616;12.872;2023-11-19T19:24:06;3.17;;;2.10;;
7683;SDS011;3884;48.616;12.872;2023-11-19T19:26:34;2.17;;;1.97;;
7683;SDS011;3884;48.616;12.872;2023-11-19T19:29:02;2.03;;;1.83;;
7683;SDS011;3884;48.616;12.872;2023-11-19T19:31:30;2.03;;;1.87;;
7683;SDS011;3884;48.616;12.872;2023-11-19T19:33:57;1.83;;;1.53;;
7683;SDS011;3884;48.616;12.872;2023-11-19T19:36:25;2.93;;;2.63;;
7683;SDS011;3884;48.616;12.872;2023-11-19T19:38:53;1.93;;;1.73;;
7683;SDS011;3884;48.616;12.872;2023-11-19T19:41:20;1.87;;;1.67;;
7683;SDS011;3884;48.616;12.872;2023-11-19T19:43:48;1.90;;;1.70;;
7683;SDS011;3884;48.616;12.872;2023-11-19T19:46:15;3.03;;;1.90;;
7683;SDS011;3884;48.616;12.872;2023-11-19T19:48:43;2.23;;;1.67;;
7683;SDS011;3884;48.616;12.872;2023-11-19T19:51:10;3.20;;;1.63;;
7683;SDS011;3884;48.616;12.872;2023-11-19T19:53:37;1.50;;;1.40;;
7683;SDS011;3884;48.616;12.872;2023-11-19T19:56:04;2.30;;;1.50;;
7683;SDS011;3884;48.616;12.872;2023-11-19T19:58:33;1.67;;;1.57;;
7683;SDS011;3884;48.616;12.872;2023-11-19T20:01:00;2.10;;;1.87;;
7683;SDS011;3884;48.616;12.872;2023-11-19T20:03:29;1.80;;;1.60;;
7683;SDS011;3884;48.616;12.872;2023-11-19T20:05:59;2.90;;;1.70;;
7683;SDS011;3884;48.616;12.872;2023-11-19T20:08:26;1.60;;;1.50;;
7683;SDS011;3884;48.616;12.872;2023-11-19T20:10:55;1.93;;;1.40;;
7683;SDS011;3884;48.616;12.872;2023-11-19T20:13:23;1.90;;;1.60;;
7683;SDS011;3884;48.616;12.872;2023-11-19T20:15:52;1.63;;;1.40;;
7683;SDS011;3884;48.616;12.872;2023-11-19T20:18:20;1.60;;;1.40;;
7683;SDS011;3884;48.616;12.872;2023-11-19T20:20:48;1.97;;;1.30;;
7683;SDS011;3884;48.616;12.872;2023-11-19T20:23:17;1.87;;;1.60;;
7683;SDS011;3884;48.616;12.872;2023-11-19T20:25:45;1.90;;;1.70;;
7683;SDS011;3884;48.616;12.872;2023-11-19T20:28:14;1.80;;;1.70;;
7683;SDS011;3884;48.616;12.872;2023-11-19T20:30:45;1.70;;;1.60;;
7683;SDS011;3884;48.616;12.872;2023-11-19T20:33:12;1.67;;;1.57;;
7683;SDS011;3884;48.616;12.872;2023-11-19T20:35:40;2.60;;;1.60;;
7683;SDS011;3884;48.616;12.872;2023-11-19T20:38:08;2.47;;;1.67;;
7683;SDS011;3884;48.616;12.872;2023-11-19T20:40:37;4.20;;;2.57;;
7683;SDS011;3884;48.616;12.872;2023-11-19T20:43:04;2.10;;;1.77;;
7683;SDS011;3884;48.616;12.872;2023-11-19T20:45:31;3.17;;;1.60;;
7683;SDS011;3884;48.616;12.872;2023-11-19T20:47:58;2.93;;;1.50;;
7683;SDS011;3884;48.616;12.872;2023-11-19T20:50:25;2.60;;;2.20;;
7683;SDS011;3884;48.616;12.872;2023-11-19T20:52:53;3.00;;;1.60;;
7683;SDS011;3884;48.616;12.872;2023-11-19T20:55:22;1.67;;;1.43;;
7683;SDS011;3884;48.616;12.872;2023-11-19T20:57:51;1.70;;;1.40;;
7683;SDS011;3884;48.616;12.872;2023-11-19T21:00:18;4.03;;;1.47;;
7683;SDS011;3884;48.616;12.872;2023-11-19T21:02:46;5.93;;;2.73;;
7683;SDS011;3884;48.616;12.872;2023-11-19T21:05:13;1.17;;;1.07;;
7683;SDS011;3884;48.616;12.872;2023-11-19T21:07:40;1.93;;;1.40;;
7683;SDS011;3884;48.616;12.872;2023-11-19T21:10:08;3.03;;;1.63;;
7683;SDS011;3884;48.616;12.872;2023-11-19T21:12:37;3.43;;;1.50;;
7683;SDS011;3884;48.616;12.872;2023-11-19T21:15:07;3.03;;;1.60;;
7683;SDS011;3884;48.616;12.872;2023-11-19T21:17:35;1.53;;;1.40;;
7683;SDS011;3884;48.616;12.872;2023-11-19T21:20:03;2.90;;;1.30;;
7683;SDS011;3884;48.616;12.872;2023-11-19T21:22:30;2.20;;;1.50;;
7683;SDS011;3884;48.616;12.872;2023-11-19T21:24:57;2.03;;;1.47;;
7683;SDS011;3884;48.616;12.872;2023-11-19T21:27:24;2.13;;;1.43;;
7683;SDS011;3884;48.616;12.872;2023-11-19T21:29:54;2.30;;;1.20;;
7683;SDS011;3884;48.616;12.872;2023-11-19T21:32:23;2.37;;;1.97;;
7683;SDS011;3884;48.616;12.872;2023-11-19T21:34:50;1.57;;;1.37;;
7683;SDS011;3884;48.616;12.872;2023-11-19T21:37:17;3.27;;;1.37;;
7683;SDS011;3884;48.616;12.872;2023-11-19T21:39:44;5.70;;;1.47;;
7683;SDS011;3884;48.616;12.872;2023-11-19T21:42:11;1.60;;;1.40;;
7683;SDS011;3884;48.616;12.872;2023-11-19T21:44:38;7.03;;;4.57;;
7683;SDS011;3884;48.616;12.872;2023-11-19T21:47:05;2.90;;;1.50;;
7683;SDS011;3884;48.616;12.872;2023-11-19T21:49:35;3.57;;;1.50;;
7683;SDS011;3884;48.616;12.872;2023-11-19T21:52:03;2.97;;;1.70;;
7683;SDS011;3884;48.616;12.872;2023-11-19T21:54:31;3.53;;;2.00;;
7683;SDS011;3884;48.616;12.872;2023-11-19T21:56:59;3.37;;;1.87;;
7683;SDS011;3884;48.616;12.872;2023-11-19T21:59:27;6.07;;;2.03;;
7683;SDS011;3884;48.616;12.872;2023-11-19T22:01:54;3.00;;;1.60;;
7683;SDS011;3884;48.616;12.872;2023-11-19T22:04:21;3.33;;;1.83;;
7683;SDS011;3884;48.616;12.872;2023-11-19T22:06:52;4.13;;;1.97;;